createdAt,value
2022-11-23T00:00:05.604Z,100674.89
2022-11-23T00:02:34.265Z,100672.21
2022-11-23T00:05:02.818Z,100674.20
2022-11-23T00:07:31.687Z,100671.45
2022-11-23T00:10:00.388Z,100676.59
2022-11-23T00:12:29.017Z,100676.31
2022-11-23T00:14:57.653Z,100675.61
2022-11-23T00:17:26.363Z,100676.09
2022-11-23T00:19:56.265Z,100673.97
2022-11-23T00:22:24.982Z,100676.28
2022-11-23T00:24:53.825Z,100674.63
2022-11-23T00:27:22.676Z,100674.52
2022-11-23T00:29:51.357Z,100675.13
2022-11-23T00:32:20.009Z,100671.63
2022-11-23T00:34:48.726Z,100668.04
2022-11-23T00:37:17.535Z,100669.55
2022-11-23T00:39:46.181Z,100674.58
2022-11-23T00:42:14.912Z,100673.48
2022-11-23T00:44:43.567Z,100668.98
2022-11-23T00:47:12.181Z,100668.29
2022-11-23T00:49:40.889Z,100672.53
2022-11-23T00:52:09.466Z,100676.42
2022-11-23T00:54:38.281Z,100675.52
2022-11-23T00:57:07.024Z,100675.86
2022-11-23T00:59:38.094Z,100676.45
2022-11-23T01:02:08.056Z,100679.39
2022-11-23T01:05:00.156Z,100680.42
2022-11-23T01:07:33.993Z,100677.56
2022-11-23T01:10:03.085Z,100672.05
2022-11-23T01:15:15.897Z,100672.02
2022-11-23T01:17:44.730Z,100667.34
2022-11-23T01:20:13.655Z,100663.20
2022-11-23T01:22:42.711Z,100657.06
2022-11-23T01:25:12.603Z,100654.11
2022-11-23T01:27:41.541Z,100644.82
2022-11-23T01:30:14.322Z,100644.83
2022-11-23T01:32:49.999Z,100633.95
2022-11-23T01:35:20.685Z,100630.95
2022-11-23T01:37:49.383Z,100626.71
2022-11-23T01:40:18.434Z,100627.50
2022-11-23T01:43:00.697Z,100628.98
2022-11-23T01:45:46.568Z,100629.45
2022-11-23T01:51:31.670Z,100623.98
2022-11-23T01:57:36.793Z,100623.34
2022-11-23T02:00:06.390Z,100619.77
2022-11-23T02:02:48.390Z,100615.85
2022-11-23T02:05:19.126Z,100613.48
2022-11-23T02:07:49.796Z,100608.92
2022-11-23T02:10:23.525Z,100610.45
2022-11-23T02:13:57.295Z,100610.44
2022-11-23T02:16:38.880Z,100617.48
2022-11-23T02:19:21.954Z,100612.23
2022-11-23T02:21:52.454Z,100609.73
2022-11-23T02:24:31.170Z,100611.98
2022-11-23T02:26:59.962Z,100617.65
2022-11-23T02:29:29.728Z,100616.74
2022-11-23T02:33:06.255Z,100621.26
2022-11-23T02:36:01.743Z,100624.05
2022-11-23T02:41:23.189Z,100611.56
2022-11-23T02:43:57.382Z,100607.34
2022-11-23T02:46:31.548Z,100610.31
2022-11-23T02:49:03.370Z,100611.20
2022-11-23T02:51:33.501Z,100614.48
2022-11-23T02:54:20.815Z,100614.16
2022-11-23T02:57:21.998Z,100612.38
2022-11-23T03:03:13.454Z,100611.08
2022-11-23T03:05:43.035Z,100608.00
2022-11-23T03:08:12.476Z,100601.90
2022-11-23T03:10:42.682Z,100599.72
2022-11-23T03:16:39.130Z,100588.42
2022-11-23T03:19:31.570Z,100587.92
2022-11-23T03:25:59.307Z,100590.52
2022-11-23T03:32:01.020Z,100587.73
2022-11-23T03:34:44.251Z,100590.58
2022-11-23T03:37:48.972Z,100596.39
2022-11-23T03:40:22.099Z,100599.34
2022-11-23T03:43:09.441Z,100602.15
2022-11-23T03:45:38.228Z,100602.23
2022-11-23T03:48:07.270Z,100600.96
2022-11-23T03:50:37.692Z,100590.39
2022-11-23T03:53:07.667Z,100588.54
2022-11-23T03:55:36.930Z,100591.09
2022-11-23T03:58:19.454Z,100589.81
2022-11-23T04:00:49.744Z,100594.61
2022-11-23T04:03:45.726Z,100591.46
2022-11-23T04:07:19.275Z,100591.15
2022-11-23T04:11:12.545Z,100585.02
2022-11-23T04:14:12.958Z,100571.33
2022-11-23T04:17:50.045Z,100566.98
2022-11-23T04:20:22.925Z,100569.23
2022-11-23T04:35:17.579Z,100558.71
2022-11-23T04:37:47.899Z,100563.77
2022-11-23T04:40:21.045Z,100564.69
2022-11-23T04:46:28.513Z,100556.39
2022-11-23T04:51:50.794Z,100547.08
2022-11-23T04:54:24.463Z,100545.10
2022-11-23T05:00:19.725Z,100553.76
2022-11-23T05:02:49.090Z,100552.09
2022-11-23T05:05:28.699Z,100554.75
2022-11-23T05:07:59.787Z,100549.64
2022-11-23T05:10:41.805Z,100548.88
2022-11-23T05:13:52.551Z,100544.98
2022-11-23T05:23:17.914Z,100542.67
2022-11-23T05:33:22.255Z,100535.56
2022-11-23T05:37:00.008Z,100539.65
2022-11-23T05:43:47.508Z,100539.38
2022-11-23T05:46:20.877Z,100541.52
2022-11-23T05:48:50.007Z,100543.06
2022-11-23T05:55:37.152Z,100538.58
2022-11-23T05:58:11.877Z,100543.14
2022-11-23T06:00:42.994Z,100543.95
2022-11-23T06:06:36.039Z,100541.02
2022-11-23T06:10:00.338Z,100537.85
2022-11-23T06:19:14.455Z,100539.50
2022-11-23T06:22:16.363Z,100533.13
2022-11-23T06:31:46.782Z,100526.91
2022-11-23T06:34:40.964Z,100526.79
2022-11-23T06:43:51.584Z,100528.64
2022-11-23T06:46:36.112Z,100530.73
2022-11-23T06:49:06.091Z,100529.05
2022-11-23T06:51:38.848Z,100527.36
2022-11-23T06:54:11.444Z,100520.36
2022-11-23T06:56:40.906Z,100517.02
2022-11-23T07:10:12.268Z,100514.39
2022-11-23T07:12:53.094Z,100514.13
2022-11-23T07:15:32.173Z,100514.19
2022-11-23T07:18:08.163Z,100504.40
2022-11-23T07:20:53.397Z,100499.27
2022-11-23T07:23:30.198Z,100501.55
2022-11-23T07:25:59.374Z,100500.84
2022-11-23T07:28:30.018Z,100495.20
2022-11-23T07:31:04.039Z,100492.20
2022-11-23T07:33:48.128Z,100492.94
2022-11-23T07:36:18.603Z,100491.80
2022-11-23T07:38:48.298Z,100490.73
2022-11-23T07:41:20.953Z,100489.66
2022-11-23T07:44:41.259Z,100484.35
2022-11-23T07:47:12.437Z,100484.05
2022-11-23T07:53:06.984Z,100480.08
2022-11-23T07:55:36.771Z,100482.64
2022-11-23T07:58:18.938Z,100487.39
2022-11-23T08:00:53.689Z,100487.13
2022-11-23T08:03:28.872Z,100481.13
2022-11-23T08:06:00.181Z,100476.14
2022-11-23T08:08:35.379Z,100469.59
2022-11-23T08:11:14.888Z,100471.80
2022-11-23T08:13:44.465Z,100473.62
2022-11-23T08:16:13.935Z,100468.68
2022-11-23T08:18:43.333Z,100471.60
2022-11-23T08:21:13.654Z,100472.77
2022-11-23T08:23:47.611Z,100471.23
2022-11-23T08:26:25.105Z,100472.86
2022-11-23T08:29:01.058Z,100473.27
2022-11-23T08:31:35.500Z,100474.19
2022-11-23T08:34:10.792Z,100475.09
2022-11-23T08:36:42.566Z,100478.67
2022-11-23T08:42:13.794Z,100470.20
2022-11-23T08:44:50.954Z,100466.56
2022-11-23T08:47:26.390Z,100462.88
2022-11-23T08:50:21.262Z,100457.30
2022-11-23T09:00:12.626Z,100436.27
2022-11-23T09:24:26.745Z,100417.88
2022-11-23T09:34:02.429Z,100402.92
2022-11-23T09:36:46.734Z,100395.19
2022-11-23T09:39:17.402Z,100390.15
2022-11-23T09:42:15.324Z,100386.61
2022-11-23T09:51:46.911Z,100369.17
2022-11-23T10:04:21.886Z,100345.77
2022-11-23T10:11:28.815Z,100334.77
2022-11-23T10:15:05.301Z,100329.40
2022-11-23T10:18:06.683Z,100318.20
2022-11-23T10:21:01.373Z,100311.44
2022-11-23T10:24:02.805Z,100306.42
2022-11-23T10:26:44.160Z,100310.67
2022-11-23T10:29:40.356Z,100310.68
2022-11-23T10:32:45.013Z,100308.31
2022-11-23T10:35:47.723Z,100304.19
2022-11-23T10:38:26.800Z,100300.33
2022-11-23T10:41:16.670Z,100296.98
2022-11-23T10:44:04.180Z,100289.05
2022-11-23T10:46:42.230Z,100290.02
2022-11-23T10:49:33.370Z,100282.27
2022-11-23T10:52:07.477Z,100274.69
2022-11-23T10:54:50.399Z,100274.21
2022-11-23T10:57:37.165Z,100269.39
2022-11-23T11:00:16.084Z,100259.23
2022-11-23T11:02:53.198Z,100257.40
2022-11-23T11:06:07.522Z,100250.44
2022-11-23T11:08:33.579Z,100245.27
2022-11-23T11:11:31.940Z,100243.42
2022-11-23T11:14:06.956Z,100246.44
2022-11-23T11:16:49.138Z,100246.38
2022-11-23T11:19:31.355Z,100235.54
2022-11-23T11:22:03.379Z,100230.83
2022-11-23T11:24:45.302Z,100231.85
2022-11-23T11:27:18.861Z,100224.91
2022-11-23T11:29:53.402Z,100224.23
2022-11-23T11:32:44.475Z,100226.52
2022-11-23T11:35:31.885Z,100229.70
2022-11-23T11:38:36.556Z,100235.61
2022-11-23T11:41:11.772Z,100247.13
2022-11-23T11:44:09.161Z,100253.60
2022-11-23T11:46:48.223Z,100239.83
2022-11-23T11:49:45.191Z,100225.92
2022-11-23T11:52:25.310Z,100219.03
2022-11-23T11:55:27.252Z,100210.23
2022-11-23T11:58:12.651Z,100215.73
2022-11-23T12:00:45.190Z,100221.52
2022-11-23T12:03:36.803Z,100222.90
2022-11-23T12:06:23.651Z,100224.27
2022-11-23T12:09:19.732Z,100222.39
2022-11-23T12:11:50.558Z,100218.09
2022-11-23T12:14:20.621Z,100213.71
2022-11-23T12:17:53.365Z,100205.74
2022-11-23T12:21:20.976Z,100197.02
2022-11-23T12:24:21.495Z,100197.10
2022-11-23T12:27:30.027Z,100188.83
2022-11-23T12:31:10.251Z,100185.40
2022-11-23T12:34:22.516Z,100186.64
2022-11-23T12:37:44.626Z,100191.63
2022-11-23T12:44:27.467Z,100193.06
2022-11-23T12:47:40.117Z,100189.23
2022-11-23T12:50:50.789Z,100194.48
2022-11-23T12:53:41.017Z,100192.18
2022-11-23T12:57:24.684Z,100186.03
2022-11-23T13:00:31.192Z,100183.55
2022-11-23T13:04:05.929Z,100188.27
2022-11-23T13:07:38.278Z,100179.34
2022-11-23T13:11:19.795Z,100173.22
2022-11-23T13:14:21.131Z,100174.98
2022-11-23T13:17:07.110Z,100168.98
2022-11-23T13:21:05.879Z,100170.79
2022-11-23T13:26:40.308Z,100163.34
2022-11-23T13:30:51.969Z,100160.10
2022-11-23T13:33:36.907Z,100158.61
2022-11-23T13:36:18.503Z,100161.73
2022-11-23T13:39:02.797Z,100162.02
2022-11-23T13:45:24.098Z,100154.27
2022-11-23T13:48:55.440Z,100152.55
2022-11-23T13:51:10.449Z,100147.38
2022-11-23T13:54:04.993Z,100147.46
2022-11-23T13:57:09.700Z,100141.50
2022-11-23T13:59:47.502Z,100139.60
2022-11-23T14:02:30.341Z,100136.80
2022-11-23T14:05:50.567Z,100134.88
2022-11-23T14:08:24.386Z,100131.93
2022-11-23T14:10:55.078Z,100139.45
2022-11-23T14:13:44.971Z,100139.30
2022-11-23T14:16:30.367Z,100133.97
2022-11-23T14:20:21.164Z,100140.30
2022-11-23T14:23:20.446Z,100134.54
2022-11-23T14:26:43.828Z,100131.25
2022-11-23T14:33:28.365Z,100124.94
2022-11-23T14:36:23.115Z,100124.60
2022-11-23T14:39:42.344Z,100125.23
2022-11-23T14:42:34.512Z,100127.67
2022-11-23T14:45:09.625Z,100129.95
2022-11-23T14:47:40.673Z,100130.58
2022-11-23T14:50:29.175Z,100125.58
2022-11-23T14:53:03.555Z,100120.02
2022-11-23T14:55:33.356Z,100120.52
2022-11-23T14:58:17.466Z,100113.41
2022-11-23T15:01:03.315Z,100114.25
2022-11-23T15:03:50.390Z,100119.37
2022-11-23T15:06:23.069Z,100121.52
2022-11-23T15:12:53.757Z,100116.81
2022-11-23T15:15:42.067Z,100114.36
2022-11-23T15:18:39.321Z,100112.55
2022-11-23T15:21:15.943Z,100112.20
2022-11-23T17:58:34.322Z,100133.10
2022-11-23T18:02:30.090Z,100129.39
2022-11-23T18:05:16.391Z,100135.52
2022-11-23T18:17:46.327Z,100127.71
2022-11-23T18:21:03.617Z,100133.46
2022-11-23T18:43:41.805Z,100126.89
2022-11-23T18:47:54.065Z,100128.10
2022-11-23T18:51:41.069Z,100137.13
2022-11-23T19:03:28.492Z,100144.92
2022-11-23T19:06:08.561Z,100146.54
2022-11-23T19:09:14.832Z,100150.75
2022-11-23T19:11:51.309Z,100151.57
2022-11-23T19:15:12.182Z,100143.77
2022-11-23T19:17:49.786Z,100148.34
2022-11-23T19:20:25.580Z,100150.60
2022-11-23T19:22:54.700Z,100152.06
2022-11-23T19:25:28.249Z,100155.00
2022-11-23T19:27:57.020Z,100156.98
2022-11-23T19:34:55.694Z,100157.13
2022-11-23T19:37:54.322Z,100156.48
2022-11-23T19:40:30.027Z,100154.16
2022-11-23T19:43:00.418Z,100153.96
2022-11-23T19:46:12.029Z,100155.58
2022-11-23T19:49:39.362Z,100154.04
2022-11-23T19:52:12.359Z,100155.63
2022-11-23T19:54:42.322Z,100155.57
2022-11-23T19:57:10.164Z,100161.22
2022-11-23T19:59:38.003Z,100164.17
2022-11-23T20:02:10.534Z,100164.27
2022-11-23T20:04:38.553Z,100166.04
2022-11-23T20:07:06.598Z,100165.95
2022-11-23T20:09:35.021Z,100162.91
2022-11-23T20:12:03.703Z,100163.25
2022-11-23T20:14:31.831Z,100169.26
2022-11-23T20:17:00.321Z,100167.98
2022-11-23T20:20:18.602Z,100168.58
2022-11-23T20:22:46.937Z,100175.83
2022-11-23T20:25:16.180Z,100178.16
2022-11-23T20:27:45.399Z,100183.00
2022-11-23T20:30:13.661Z,100181.77
2022-11-23T20:32:41.920Z,100182.58
2022-11-23T20:35:30.348Z,100184.13
2022-11-23T20:38:21.075Z,100188.66
2022-11-23T20:41:55.127Z,100193.16
2022-11-23T20:48:09.101Z,100201.90
2022-11-23T20:50:37.115Z,100211.90
2022-11-23T20:53:05.324Z,100213.59
2022-11-23T20:55:33.498Z,100212.08
2022-11-23T20:58:01.972Z,100217.73
2022-11-23T21:00:55.219Z,100219.40
2022-11-23T21:04:05.473Z,100216.48
2022-11-23T21:06:54.119Z,100214.80
2022-11-23T21:09:23.121Z,100211.09
2022-11-23T21:12:09.892Z,100217.48
2022-11-23T21:14:38.879Z,100214.76
2022-11-23T21:17:06.695Z,100211.27
2022-11-23T21:19:38.567Z,100208.23
2022-11-23T21:22:14.422Z,100203.73
2022-11-23T21:24:42.020Z,100200.09
2022-11-23T21:27:26.194Z,100204.11
2022-11-23T21:30:06.952Z,100200.48
2022-11-23T21:32:34.606Z,100203.59
2022-11-23T21:35:02.136Z,100208.11
2022-11-23T21:37:32.212Z,100217.19
2022-11-23T21:40:06.240Z,100228.20
2022-11-23T21:42:34.218Z,100229.80
2022-11-23T21:45:24.837Z,100226.23
2022-11-23T21:47:54.621Z,100232.20
2022-11-23T21:50:22.373Z,100231.41
2022-11-23T21:52:50.087Z,100228.05
2022-11-23T21:55:18.104Z,100233.27
2022-11-23T21:57:45.611Z,100237.26
2022-11-23T22:00:13.547Z,100238.82
2022-11-23T22:02:40.879Z,100238.10
2022-11-23T22:05:08.630Z,100240.58
2022-11-23T22:07:36.161Z,100238.33
2022-11-23T22:10:04.567Z,100235.90
2022-11-23T22:12:32.175Z,100235.13
2022-11-23T22:14:59.533Z,100241.00
2022-11-23T22:17:27.202Z,100244.41
2022-11-23T22:19:54.948Z,100235.85
2022-11-23T22:22:22.622Z,100237.38
2022-11-23T22:24:50.241Z,100240.73
2022-11-23T22:27:17.846Z,100242.84
2022-11-23T22:29:45.352Z,100234.75
2022-11-23T22:32:12.875Z,100226.06
2022-11-23T22:34:40.414Z,100228.08
2022-11-23T22:37:10.857Z,100239.09
2022-11-23T22:39:38.968Z,100250.80
2022-11-23T22:42:07.005Z,100244.60
2022-11-23T22:44:35.255Z,100237.80
2022-11-23T22:47:03.464Z,100241.00
2022-11-23T22:49:31.515Z,100242.40
2022-11-23T22:51:59.484Z,100239.50
2022-11-23T22:54:28.494Z,100234.64
2022-11-23T22:56:56.333Z,100239.63
2022-11-23T22:59:24.378Z,100251.52
2022-11-23T23:01:52.449Z,100262.59
2022-11-23T23:04:20.203Z,100260.93
2022-11-23T23:06:49.565Z,100260.10
2022-11-23T23:09:17.654Z,100254.63
2022-11-23T23:11:45.444Z,100244.08
2022-11-23T23:14:13.460Z,100238.81
2022-11-23T23:16:40.980Z,100243.48
2022-11-23T23:19:08.930Z,100250.56
2022-11-23T23:21:36.644Z,100254.97
2022-11-23T23:24:05.308Z,100258.98
2022-11-23T23:26:32.868Z,100256.64
2022-11-23T23:29:00.886Z,100257.39
2022-11-23T23:31:29.513Z,100254.89
2022-11-23T23:33:59.186Z,100255.91
2022-11-23T23:36:27.029Z,100254.14
2022-11-23T23:38:54.716Z,100249.17
2022-11-23T23:41:22.817Z,100247.98
2022-11-23T23:44:41.032Z,100247.83
2022-11-23T23:47:59.411Z,100251.29
2022-11-23T23:50:32.395Z,100250.08
2022-11-23T23:53:00.118Z,100256.33
2022-11-23T23:55:27.821Z,100256.38
2022-11-23T23:57:55.633Z,100259.13
